Time,TemperatureF,DewpointF,PressureIn,WindDirection,WindDirectionDegrees,WindSpeedMPH,WindSpeedGustMPH,Humidity,HourlyPrecipIn,Conditions,Clouds,dailyrainin,SoftwareType,DateUTC
2013-03-23 00:04:00,40.1,0.0,29.32,NNE,15,0.0,0.0,18,0.00,,---,0.00,VWS V14.01,2013-03-23 07:04:00,
2013-03-23 00:09:00,39.7,-0.3,29.32,NNE,16,0.0,0.0,18,0.00,,---,0.00,VWS V14.01,2013-03-23 07:09:00,
2013-03-23 00:15:00,41.4,1.0,29.32,ESE,115,4.0,4.5,18,0.00,,---,0.00,VWS V14.01,2013-03-23 07:15:00,
2013-03-23 00:20:00,41.0,0.8,29.32,East,91,2.7,4.5,18,0.00,,---,0.00,VWS V14.01,2013-03-23 07:20:00,
2013-03-23 00:25:00,40.6,0.5,29.32,ESE,104,3.1,4.0,18,0.00,,---,0.00,VWS V14.01,2013-03-23 07:25:00,
2013-03-23 00:31:00,44.4,2.3,29.32,ESE,122,0.0,4.0,17,0.00,,---,0.00,VWS V14.01,2013-03-23 07:31:00,
2013-03-23 00:37:00,43.7,3.0,29.32,SE,135,4.5,4.5,18,0.00,,---,0.00,VWS V14.01,2013-03-23 07:37:00,
2013-03-23 00:42:00,42.1,1.6,29.32,North,8,3.6,4.0,18,0.00,,---,0.00,VWS V14.01,2013-03-23 07:42:00,
2013-03-23 00:47:00,41.4,1.0,29.32,NNW,333,0.0,0.0,18,0.00,,---,0.00,VWS V14.01,2013-03-23 07:47:00,
2013-03-23 00:52:00,40.5,0.3,29.32,North,2,0.0,0.0,18,0.00,,---,0.00,VWS V14.01,2013-03-23 07:52:00,
2013-03-23 00:57:00,39.7,-0.3,29.32,NNE,16,0.0,0.0,18,0.00,,---,0.00,VWS V14.01,2013-03-23 07:57:00,
2013-03-23 01:03:00,39.7,-0.3,29.32,NW,325,0.0,4.0,18,0.00,,---,0.00,VWS V14.01,2013-03-23 08:03:00,
2013-03-23 01:08:00,40.6,0.5,29.32,North,4,0.0,0.0,18,0.00,,---,0.00,VWS V14.01,2013-03-23 08:08:00,
2013-03-23 01:13:00,42.1,1.6,29.32,ESE,123,3.1,3.6,18,0.00,,---,0.00,VWS V14.01,2013-03-23 08:13:00,
2013-03-23 01:18:00,43.7,3.0,29.32,NNW,336,0.0,4.9,18,0.00,,---,0.00,VWS V14.01,2013-03-23 08:18:00,
2013-03-23 01:23:00,41.4,1.0,29.32,West,272,0.0,0.0,18,0.00,,---,0.00,VWS V14.01,2013-03-23 08:23:00,
2013-03-23 01:28:00,39.6,-0.4,29.32,West,272,0.0,0.0,18,0.00,,---,0.00,VWS V14.01,2013-03-23 08:28:00,
2013-03-23 01:33:00,38.7,-1.2,29.35,West,271,3.1,4.0,18,0.00,,---,0.00,VWS V14.01,2013-03-23 08:33:00,
2013-03-23 01:38:00,37.9,-0.6,29.35,West,271,0.0,0.0,19,0.00,,---,0.00,VWS V14.01,2013-03-23 08:38:00,
2013-03-23 01:43:00,38.1,-0.5,29.35,WNW,299,0.0,0.0,19,0.00,,---,0.00,VWS V14.01,2013-03-23 08:43:00,
2013-03-23 01:48:00,37.9,-0.6,29.35,WNW,298,0.0,0.0,19,0.00,,---,0.00,VWS V14.01,2013-03-23 08:48:00,
2013-03-23 01:53:00,37.6,-0.9,29.35,NW,311,0.0,0.0,19,0.00,,---,0.00,VWS V14.01,2013-03-23 08:53:00,
2013-03-23 01:58:00,39.2,-0.7,29.35,ENE,64,0.0,0.0,18,0.00,,---,0.00,VWS V14.01,2013-03-23 08:58:00,
2013-03-23 02:03:00,40.3,0.2,29.35,ENE,64,0.0,0.0,18,0.00,,---,0.00,VWS V14.01,2013-03-23 09:03:00,
2013-03-23 02:08:00,41.9,1.5,29.35,SE,125,2.7,3.6,18,0.00,,---,0.00,VWS V14.01,2013-03-23 09:08:00,
2013-03-23 02:13:00,43.3,2.7,29.35,ESE,107,4.0,4.5,18,0.00,,---,0.00,VWS V14.01,2013-03-23 09:13:00,
2013-03-23 02:18:00,42.4,1.9,29.35,West,269,4.9,4.9,18,0.00,,---,0.00,VWS V14.01,2013-03-23 09:18:00,
2013-03-23 02:24:00,39.4,-0.6,29.35,NNW,339,0.0,4.0,18,0.00,,---,0.00,VWS V14.01,2013-03-23 09:24:00,
2013-03-23 02:29:00,37.4,-1.1,29.35,NNE,20,0.0,0.0,19,0.00,,---,0.00,VWS V14.01,2013-03-23 09:29:00,
2013-03-23 02:34:00,38.1,-0.5,29.35,East,95,0.0,3.6,19,0.00,,---,0.00,VWS V14.01,2013-03-23 09:34:00,
2013-03-23 02:39:00,38.7,-1.2,29.35,ESE,120,0.0,4.0,18,0.00,,---,0.00,VWS V14.01,2013-03-23 09:39:00,
2013-03-23 02:44:00,38.7,-1.2,29.35,SSE,165,3.6,4.0,18,0.00,,---,0.00,VWS V14.01,2013-03-23 09:44:00,
2013-03-23 02:49:00,38.5,-1.3,29.35,SW,235,0.0,2.7,18,0.00,,---,0.00,VWS V14.01,2013-03-23 09:49:00,
2013-03-23 02:54:00,37.8,-0.8,29.35,ESE,119,4.9,4.9,19,0.00,,---,0.00,VWS V14.01,2013-03-23 09:54:00,
2013-03-23 02:59:00,39.6,-0.4,29.35,ESE,116,0.0,0.0,18,0.00,,---,0.00,VWS V14.01,2013-03-23 09:59:00,
2013-03-23 03:05:00,40.5,0.3,29.35,ESE,122,0.0,0.0,18,0.00,,---,0.00,VWS V14.01,2013-03-23 10:05:00,
2013-03-23 03:10:00,41.2,0.9,29.35,SSE,162,4.5,4.5,18,0.00,,---,0.00,VWS V14.01,2013-03-23 10:10:00,
2013-03-23 03:15:00,41.9,1.5,29.35,East,89,0.0,3.1,18,0.00,,---,0.00,VWS V14.01,2013-03-23 10:15:00,
2013-03-23 03:20:00,41.2,0.9,29.35,East,86,0.0,0.0,18,0.00,,---,0.00,VWS V14.01,2013-03-23 10:20:00,
2013-03-23 03:25:00,44.6,2.5,29.35,NE,48,4.0,4.5,17,0.00,,---,0.00,VWS V14.01,2013-03-23 10:25:00,
2013-03-23 03:32:00,48.0,7.7,29.32,NE,46,7.8,8.3,19,0.00,,---,0.00,VWS V14.01,2013-03-23 10:32:00,
2013-03-23 03:37:00,46.9,4.4,29.32,ENE,66,3.6,4.0,17,0.00,,---,0.00,VWS V14.01,2013-03-23 10:37:00,
2013-03-23 03:42:00,46.0,3.7,29.32,NE,48,3.1,5.4,17,0.00,,---,0.00,VWS V14.01,2013-03-23 10:42:00,
2013-03-23 03:47:00,44.6,2.5,29.32,North,7,0.0,3.6,17,0.00,,---,0.00,VWS V14.01,2013-03-23 10:47:00,
2013-03-23 03:52:00,43.7,1.8,29.32,East,82,3.1,4.0,17,0.00,,---,0.00,VWS V14.01,2013-03-23 10:52:00,
2013-03-23 03:57:00,42.4,1.9,29.32,ENE,62,5.8,5.8,18,0.00,,---,0.00,VWS V14.01,2013-03-23 10:57:00,
2013-03-23 04:02:00,44.8,2.6,29.32,NE,55,5.4,6.9,17,0.00,,---,0.00,VWS V14.01,2013-03-23 11:02:00,
2013-03-23 04:07:00,45.9,3.5,29.32,NNE,31,7.8,8.7,17,0.00,,---,0.00,VWS V14.01,2013-03-23 11:07:00,
2013-03-23 04:12:00,47.5,3.5,29.32,NE,51,8.3,9.2,16,0.00,,---,0.00,VWS V14.01,2013-03-23 11:12:00,
2013-03-23 04:17:00,48.2,4.1,29.32,NE,54,7.8,8.3,16,0.00,,---,0.00,VWS V14.01,2013-03-23 11:17:00,
2013-03-23 04:22:00,48.4,4.3,29.32,NE,53,8.3,8.3,16,0.00,,---,0.00,VWS V14.01,2013-03-23 11:22:00,
2013-03-23 04:27:00,47.5,3.5,29.32,NE,38,0.0,4.5,16,0.00,,---,0.00,VWS V14.01,2013-03-23 11:27:00,
2013-03-23 04:32:00,45.0,2.8,29.32,North,5,0.0,4.5,17,0.00,,---,0.00,VWS V14.01,2013-03-23 11:32:00,
2013-03-23 04:37:00,43.2,2.5,29.32,NNW,332,0.0,3.6,18,0.00,,---,0.00,VWS V14.01,2013-03-23 11:37:00,
2013-03-23 04:42:00,42.4,1.9,29.32,NNW,329,3.1,4.5,18,0.00,,---,0.00,VWS V14.01,2013-03-23 11:42:00,
2013-03-23 04:47:00,41.9,1.5,29.32,NNW,327,0.0,0.0,18,0.00,,---,0.00,VWS V14.01,2013-03-23 11:47:00,
2013-03-23 04:52:00,40.5,0.3,29.32,West,277,0.0,4.9,18,0.00,,---,0.00,VWS V14.01,2013-03-23 11:52:00,
2013-03-23 04:57:00,44.2,2.2,29.32,NNE,28,6.9,8.3,17,0.00,,---,0.00,VWS V14.01,2013-03-23 11:57:00,
2013-03-23 05:02:00,48.4,4.3,29.32,NNE,29,6.3,8.7,16,0.00,,---,0.00,VWS V14.01,2013-03-23 12:02:00,
2013-03-23 05:07:00,50.2,9.5,29.32,NE,37,9.6,10.1,19,0.00,,---,0.00,VWS V14.01,2013-03-23 12:07:00,
2013-03-23 05:12:00,50.5,9.8,29.32,NE,50,7.4,7.8,19,0.00,,---,0.00,VWS V14.01,2013-03-23 12:12:00,
2013-03-23 05:17:00,49.6,9.1,29.32,NE,45,7.8,8.7,19,0.00,,---,0.00,VWS V14.01,2013-03-23 12:17:00,
2013-03-23 05:22:00,48.6,4.4,29.32,West,275,6.3,6.9,16,0.00,,---,0.00,VWS V14.01,2013-03-23 12:22:00,
2013-03-23 05:27:00,45.9,3.5,29.32,West,259,0.0,0.0,17,0.00,,---,0.00,VWS V14.01,2013-03-23 12:27:00,
2013-03-23 05:32:00,44.1,2.0,29.32,West,259,0.0,0.0,17,0.00,,---,0.00,VWS V14.01,2013-03-23 12:32:00,
2013-03-23 05:37:00,43.7,1.8,29.32,West,259,0.0,0.0,17,0.00,,---,0.00,VWS V14.01,2013-03-23 12:37:00,
2013-03-23 05:43:00,43.9,1.9,29.32,WSW,253,0.0,0.0,17,0.00,,---,0.00,VWS V14.01,2013-03-23 12:43:00,
2013-03-23 05:48:00,43.9,1.9,29.35,WSW,253,0.0,0.0,17,0.00,,---,0.00,VWS V14.01,2013-03-23 12:48:00,
2013-03-23 05:53:00,43.0,2.4,29.35,WSW,253,0.0,0.0,18,0.00,,---,0.00,VWS V14.01,2013-03-23 12:53:00,
2013-03-23 05:58:00,41.9,1.5,29.35,WNW,300,0.0,3.6,18,0.00,,---,0.00,VWS V14.01,2013-03-23 12:58:00,
2013-03-23 06:03:00,42.1,1.6,29.35,WNW,296,0.0,0.0,18,0.00,,---,0.00,VWS V14.01,2013-03-23 13:03:00,
2013-03-23 06:08:00,42.6,2.1,29.35,South,178,0.0,4.5,18,0.00,,---,0.00,VWS V14.01,2013-03-23 13:08:00,
2013-03-23 06:13:00,42.8,2.2,29.35,South,175,0.0,0.0,18,0.00,,---,0.00,VWS V14.01,2013-03-23 13:13:00,
2013-03-23 06:18:00,42.8,2.2,29.35,South,174,4.5,5.4,18,0.00,,---,0.00,VWS V14.01,2013-03-23 13:18:00,
2013-03-23 06:23:00,44.8,2.6,29.35,South,187,4.5,5.8,17,0.00,,---,0.00,VWS V14.01,2013-03-23 13:23:00,
2013-03-23 06:28:00,45.3,3.1,29.35,South,188,4.9,4.9,17,0.00,,---,0.00,VWS V14.01,2013-03-23 13:28:00,
2013-03-23 06:33:00,44.1,2.0,29.35,SW,215,0.0,0.0,17,0.00,,---,0.00,VWS V14.01,2013-03-23 13:33:00,
2013-03-23 06:38:00,42.1,1.6,29.35,SW,215,0.0,0.0,18,0.00,,---,0.00,VWS V14.01,2013-03-23 13:38:00,
2013-03-23 06:43:00,42.1,1.6,29.35,East,97,0.0,4.0,18,0.00,,---,0.00,VWS V14.01,2013-03-23 13:43:00,
2013-03-23 06:48:00,41.9,1.5,29.35,East,97,3.1,3.1,18,0.00,,---,0.00,VWS V14.01,2013-03-23 13:48:00,
2013-03-23 06:53:00,41.5,1.2,29.35,East,98,0.0,3.1,18,0.00,,---,0.00,VWS V14.01,2013-03-23 13:53:00,
2013-03-23 06:58:00,42.3,1.8,29.35,SE,129,0.0,0.0,18,0.00,,---,0.00,VWS V14.01,2013-03-23 13:58:00,
2013-03-23 07:03:00,43.0,2.4,29.35,ESE,123,4.9,6.7,18,0.00,,---,0.00,VWS V14.01,2013-03-23 14:03:00,
2013-03-23 07:08:00,43.0,2.4,29.35,East,94,0.0,3.6,18,0.00,,---,0.00,VWS V14.01,2013-03-23 14:08:00,
2013-03-23 07:13:00,42.4,1.9,29.35,East,98,0.0,0.0,18,0.00,,---,0.00,VWS V14.01,2013-03-23 14:13:00,
2013-03-23 07:18:00,41.4,1.0,29.35,East,90,0.0,0.0,18,0.00,,---,0.00,VWS V14.01,2013-03-23 14:18:00,
2013-03-23 07:23:00,41.5,1.2,29.35,ENE,67,6.9,7.8,18,0.00,,---,0.00,VWS V14.01,2013-03-23 14:23:00,
2013-03-23 07:28:00,44.4,2.3,29.35,ENE,76,7.8,8.7,17,0.00,,---,0.00,VWS V14.01,2013-03-23 14:28:00,
2013-03-23 07:33:00,44.6,2.5,29.35,ENE,74,7.4,8.3,17,0.00,,---,0.00,VWS V14.01,2013-03-23 14:33:00,
2013-03-23 07:38:00,47.7,3.7,29.35,ENE,66,6.7,6.9,16,0.00,,---,0.00,VWS V14.01,2013-03-23 14:38:00,
2013-03-23 07:43:00,47.3,4.7,29.35,ENE,73,7.4,7.8,17,0.00,,---,0.00,VWS V14.01,2013-03-23 14:43:00,
2013-03-23 07:48:00,46.6,4.1,29.38,East,88,4.5,7.4,17,0.00,,---,0.00,VWS V14.01,2013-03-23 14:48:00,
2013-03-23 07:53:00,46.4,4.0,29.38,East,87,6.3,6.3,17,0.00,,---,0.00,VWS V14.01,2013-03-23 14:53:00,
2013-03-23 07:58:00,47.5,3.5,29.38,ENE,67,6.9,6.9,16,0.00,,---,0.00,VWS V14.01,2013-03-23 14:58:00,
2013-03-23 08:03:00,48.2,4.1,29.38,East,95,5.4,6.3,16,0.00,,---,0.00,VWS V14.01,2013-03-23 15:03:00,
2013-03-23 08:09:00,48.6,4.4,29.38,East,81,6.7,7.4,16,0.00,,---,0.00,VWS V14.01,2013-03-23 15:09:00,
2013-03-23 08:14:00,48.6,4.4,29.38,ENE,76,6.9,8.7,16,0.00,,---,0.00,VWS V14.01,2013-03-23 15:14:00,
2013-03-23 08:19:00,48.7,4.6,29.38,ENE,75,6.7,8.3,16,0.00,,---,0.00,VWS V14.01,2013-03-23 15:19:00,
2013-03-23 08:24:00,49.1,4.9,29.38,East,88,5.8,7.8,16,0.00,,---,0.00,VWS V14.01,2013-03-23 15:24:00,
2013-03-23 08:29:00,49.3,8.8,29.38,ENE,75,7.8,9.2,19,0.00,,---,0.00,VWS V14.01,2013-03-23 15:29:00,
2013-03-23 08:34:00,49.6,9.1,29.38,East,86,6.3,6.7,19,0.00,,---,0.00,VWS V14.01,2013-03-23 15:34:00,
2013-03-23 08:39:00,49.8,9.2,29.38,ENE,65,7.4,9.2,19,0.00,,---,0.00,VWS V14.01,2013-03-23 15:39:00,
2013-03-23 08:44:00,49.8,9.2,29.38,ENE,70,8.7,9.2,19,0.00,,---,0.00,VWS V14.01,2013-03-23 15:44:00,
2013-03-23 08:49:00,50.4,9.7,29.38,ENE,70,4.5,6.9,19,0.00,,---,0.00,VWS V14.01,2013-03-23 15:49:00,
2013-03-23 08:55:00,50.7,10.0,29.38,East,83,5.4,7.8,19,0.00,,---,0.00,VWS V14.01,2013-03-23 15:55:00,
2013-03-23 09:00:00,50.7,10.0,29.38,NE,52,9.2,9.2,19,0.00,,---,0.00,VWS V14.01,2013-03-23 16:00:00,
2013-03-23 09:05:00,51.1,9.1,29.38,NE,44,8.3,10.5,18,0.00,,---,0.00,VWS V14.01,2013-03-23 16:05:00,
2013-03-23 09:10:00,51.3,9.2,29.38,ENE,68,9.2,11.2,18,0.00,,---,0.00,VWS V14.01,2013-03-23 16:10:00,
2013-03-23 09:15:00,51.3,9.2,29.38,NE,56,7.4,12.1,18,0.00,,---,0.00,VWS V14.01,2013-03-23 16:15:00,
2013-03-23 09:20:00,51.1,9.1,29.38,ENE,70,6.9,13.9,18,0.00,,---,0.00,VWS V14.01,2013-03-23 16:20:00,
2013-03-23 09:25:00,52.0,9.8,29.38,NE,46,10.5,10.5,18,0.00,,---,0.00,VWS V14.01,2013-03-23 16:25:00,
2013-03-23 09:30:00,52.2,10.0,29.38,NNE,30,8.7,10.5,18,0.00,,---,0.00,VWS V14.01,2013-03-23 16:30:00,
2013-03-23 09:35:00,52.5,10.2,29.38,ENE,73,6.9,9.6,18,0.00,,---,0.00,VWS V14.01,2013-03-23 16:35:00,
2013-03-23 09:40:00,52.9,10.6,29.38,NE,55,12.1,12.1,18,0.00,,---,0.00,VWS V14.01,2013-03-23 16:40:00,
2013-03-23 09:45:00,53.1,10.7,29.38,NE,41,8.7,9.6,18,0.00,,---,0.00,VWS V14.01,2013-03-23 16:45:00,
2013-03-23 09:50:00,53.1,10.7,29.38,NE,48,4.5,7.8,18,0.00,,---,0.00,VWS V14.01,2013-03-23 16:50:00,
2013-03-23 09:55:00,54.0,11.4,29.38,NE,45,4.5,6.9,18,0.00,,---,0.00,VWS V14.01,2013-03-23 16:55:00,
2013-03-23 10:00:00,54.3,11.7,29.38,ESE,112,6.3,8.3,18,0.00,,---,0.00,VWS V14.01,2013-03-23 17:00:00,
2013-03-23 10:05:00,54.5,11.9,29.38,East,98,5.8,7.4,18,0.00,,---,0.00,VWS V14.01,2013-03-23 17:05:00,
2013-03-23 10:10:00,54.7,10.7,29.38,NE,45,6.9,8.7,17,0.00,,---,0.00,VWS V14.01,2013-03-23 17:10:00,
2013-03-23 10:15:00,54.9,10.9,29.38,ENE,63,7.4,9.6,17,0.00,,---,0.00,VWS V14.01,2013-03-23 17:15:00,
2013-03-23 10:20:00,54.7,10.7,29.38,ENE,67,7.4,9.2,17,0.00,,---,0.00,VWS V14.01,2013-03-23 17:20:00,
2013-03-23 10:25:00,55.0,11.0,29.38,ENE,68,6.3,8.7,17,0.00,,---,0.00,VWS V14.01,2013-03-23 17:25:00,
2013-03-23 10:30:00,56.3,12.1,29.38,NE,52,6.7,6.7,17,0.00,,---,0.00,VWS V14.01,2013-03-23 17:30:00,
2013-03-23 10:35:00,56.5,12.2,29.35,NE,48,6.9,7.4,17,0.00,,---,0.00,VWS V14.01,2013-03-23 17:35:00,
2013-03-23 10:40:00,56.5,12.2,29.35,NE,50,9.6,9.6,17,0.00,,---,0.00,VWS V14.01,2013-03-23 17:40:00,
2013-03-23 10:45:00,56.5,12.2,29.35,ENE,66,9.2,9.6,17,0.00,,---,0.00,VWS V14.01,2013-03-23 17:45:00,
2013-03-23 10:50:00,56.3,12.1,29.35,NNE,27,11.0,12.5,17,0.00,,---,0.00,VWS V14.01,2013-03-23 17:50:00,
2013-03-23 10:55:00,56.8,12.5,29.35,NE,51,9.2,9.2,17,0.00,,---,0.00,VWS V14.01,2013-03-23 17:55:00,
2013-03-23 11:00:00,57.0,12.7,29.35,ENE,68,10.1,11.2,17,0.00,,---,0.00,VWS V14.01,2013-03-23 18:00:00,
2013-03-23 11:05:00,57.4,12.9,29.35,NNE,27,6.7,9.6,17,0.00,,---,0.00,VWS V14.01,2013-03-23 18:05:00,
2013-03-23 11:10:00,57.2,12.8,29.35,ENE,77,10.5,13.0,17,0.00,,---,0.00,VWS V14.01,2013-03-23 18:10:00,
2013-03-23 11:15:00,57.9,13.4,29.35,ENE,63,9.2,11.2,17,0.00,,---,0.00,VWS V14.01,2013-03-23 18:15:00,
2013-03-23 11:20:00,58.5,13.8,29.38,NNE,32,11.2,11.6,17,0.00,,---,0.00,VWS V14.01,2013-03-23 18:20:00,
2013-03-23 11:25:00,58.3,13.7,29.38,NE,43,11.0,12.1,17,0.00,,---,0.00,VWS V14.01,2013-03-23 18:25:00,
2013-03-23 11:30:00,57.7,13.2,29.38,NE,34,7.8,10.5,17,0.00,,---,0.00,VWS V14.01,2013-03-23 18:30:00,
2013-03-23 11:35:00,59.9,15.0,29.35,North,356,7.8,11.2,17,0.00,,---,0.00,VWS V14.01,2013-03-23 18:35:00,
2013-03-23 11:40:00,60.1,13.8,29.35,NNE,22,8.7,10.1,16,0.00,,---,0.00,VWS V14.01,2013-03-23 18:40:00,
2013-03-23 11:45:00,59.7,14.9,29.35,ENE,71,4.9,6.9,17,0.00,,---,0.00,VWS V14.01,2013-03-23 18:45:00,
2013-03-23 11:50:00,60.6,14.2,29.35,North,356,8.3,12.1,16,0.00,,---,0.00,VWS V14.01,2013-03-23 18:50:00,
2013-03-23 11:55:00,60.6,14.2,29.35,NE,48,6.7,8.3,16,0.00,,---,0.00,VWS V14.01,2013-03-23 18:55:00,
2013-03-23 12:00:00,60.8,14.4,29.35,NNE,14,12.1,12.1,16,0.00,,---,0.00,VWS V14.01,2013-03-23 19:00:00,
2013-03-23 12:05:00,61.3,14.8,29.35,NNE,12,7.8,8.3,16,0.00,,---,0.00,VWS V14.01,2013-03-23 19:05:00,
2013-03-23 12:10:00,60.8,14.4,29.35,NE,54,5.8,10.5,16,0.00,,---,0.00,VWS V14.01,2013-03-23 19:10:00,
2013-03-23 12:15:00,61.3,14.8,29.35,NNE,18,4.0,6.3,16,0.00,,---,0.00,VWS V14.01,2013-03-23 19:15:00,
2013-03-23 12:20:00,61.5,14.9,29.35,North,351,7.8,11.0,16,0.00,,---,0.00,VWS V14.01,2013-03-23 19:20:00,
2013-03-23 12:25:00,63.1,16.2,29.35,NNW,339,0.0,5.4,16,0.00,,---,0.00,VWS V14.01,2013-03-23 19:25:00,
2013-03-23 12:31:00,62.2,15.5,29.35,North,4,9.6,10.5,16,0.00,,---,0.00,VWS V14.01,2013-03-23 19:31:00,
2013-03-23 12:37:00,61.9,15.2,29.32,NNE,21,7.4,9.2,16,0.00,,---,0.00,VWS V14.01,2013-03-23 19:37:00,
2013-03-23 12:42:00,61.9,15.2,29.32,North,8,4.5,6.9,16,0.00,,---,0.00,VWS V14.01,2013-03-23 19:42:00,
2013-03-23 12:47:00,62.6,15.8,29.32,NNW,332,8.3,8.3,16,0.00,,---,0.00,VWS V14.01,2013-03-23 19:47:00,
2013-03-23 12:52:00,61.5,14.9,29.32,ENE,69,6.9,11.0,16,0.00,,---,0.00,VWS V14.01,2013-03-23 19:52:00,
2013-03-23 12:57:00,63.0,16.1,29.32,NNE,15,9.6,9.6,16,0.00,,---,0.00,VWS V14.01,2013-03-23 19:57:00,
2013-03-23 13:02:00,63.1,16.2,29.32,NE,55,4.9,4.9,16,0.00,,---,0.00,VWS V14.01,2013-03-23 20:02:00,
2013-03-23 13:07:00,63.3,16.4,29.32,NNE,23,5.8,8.3,16,0.00,,---,0.00,VWS V14.01,2013-03-23 20:07:00,
2013-03-23 13:12:00,63.9,15.3,29.32,North,356,6.3,8.3,15,0.00,,---,0.00,VWS V14.01,2013-03-23 20:12:00,
2013-03-23 13:17:00,63.3,16.4,29.32,NE,50,8.3,8.3,16,0.00,,---,0.00,VWS V14.01,2013-03-23 20:17:00,
2013-03-23 13:22:00,64.2,15.6,29.32,ENE,59,4.0,5.4,15,0.00,,---,0.00,VWS V14.01,2013-03-23 20:22:00,
2013-03-23 13:27:00,63.5,16.5,29.32,NE,44,8.3,10.1,16,0.00,,---,0.00,VWS V14.01,2013-03-23 20:27:00,
2013-03-23 13:32:00,63.7,15.2,29.32,North,2,5.8,10.1,15,0.00,,---,0.00,VWS V14.01,2013-03-23 20:32:00,
2013-03-23 13:37:00,64.4,15.8,29.32,ENE,57,9.2,11.0,15,0.00,,---,0.00,VWS V14.01,2013-03-23 20:37:00,
2013-03-23 13:42:00,64.9,16.2,29.32,NNE,30,6.9,7.8,15,0.00,,---,0.00,VWS V14.01,2013-03-23 20:42:00,
2013-03-23 13:47:00,66.0,17.1,29.32,North,351,5.4,6.3,15,0.00,,---,0.00,VWS V14.01,2013-03-23 20:47:00,
2013-03-23 13:52:00,64.6,15.9,29.32,NE,37,6.3,7.8,15,0.00,,---,0.00,VWS V14.01,2013-03-23 20:52:00,
2013-03-23 13:57:00,65.7,16.8,29.32,NNE,30,0.0,9.2,15,0.00,,---,0.00,VWS V14.01,2013-03-23 20:57:00,
2013-03-23 14:02:00,66.0,17.1,29.29,NE,38,9.2,9.2,15,0.00,,---,0.00,VWS V14.01,2013-03-23 21:02:00,
2013-03-23 14:07:00,65.1,16.4,29.29,North,4,7.4,11.6,15,0.00,,---,0.00,VWS V14.01,2013-03-23 21:07:00,
2013-03-23 14:12:00,65.5,16.6,29.29,NNE,31,5.8,6.3,15,0.00,,---,0.00,VWS V14.01,2013-03-23 21:12:00,
2013-03-23 14:17:00,66.2,17.2,29.29,WNW,283,0.0,6.9,15,0.00,,---,0.00,VWS V14.01,2013-03-23 21:17:00,
2013-03-23 14:23:00,66.7,17.6,29.29,NNE,18,7.8,9.6,15,0.00,,---,0.00,VWS V14.01,2013-03-23 21:23:00,
2013-03-23 14:28:00,65.7,16.8,29.29,NE,45,6.9,10.1,15,0.00,,---,0.00,VWS V14.01,2013-03-23 21:28:00,
2013-03-23 14:33:00,66.2,17.2,29.29,NE,54,3.1,6.3,15,0.00,,---,0.00,VWS V14.01,2013-03-23 21:33:00,
2013-03-23 14:38:00,66.6,17.5,29.29,NNE,27,3.6,9.6,15,0.00,,---,0.00,VWS V14.01,2013-03-23 21:38:00,
2013-03-23 14:44:00,67.8,18.5,29.29,NNE,25,4.9,4.9,15,0.00,,---,0.00,VWS V14.01,2013-03-23 21:44:00,
2013-03-23 14:50:00,68.4,19.0,29.29,NW,308,6.9,8.3,15,0.00,,---,0.00,VWS V14.01,2013-03-23 21:50:00,
2013-03-23 14:55:00,68.4,19.0,29.29,WSW,253,3.6,4.9,15,0.00,,---,0.00,VWS V14.01,2013-03-23 21:55:00,
2013-03-23 15:00:00,69.4,18.2,29.29,SSE,165,3.6,4.9,14,0.00,,---,0.00,VWS V14.01,2013-03-23 22:00:00,
2013-03-23 15:05:00,69.4,18.2,29.29,NNW,336,5.4,7.4,14,0.00,,---,0.00,VWS V14.01,2013-03-23 22:05:00,
2013-03-23 15:10:00,68.2,18.8,29.29,NNW,337,0.0,5.4,15,0.00,,---,0.00,VWS V14.01,2013-03-23 22:10:00,
2013-03-23 15:15:00,66.9,17.8,29.29,NNE,25,7.8,9.2,15,0.00,,---,0.00,VWS V14.01,2013-03-23 22:15:00,
2013-03-23 15:20:00,66.7,17.6,29.26,NE,38,4.9,6.3,15,0.00,,---,0.00,VWS V14.01,2013-03-23 22:20:00,
2013-03-23 15:25:00,66.0,17.1,29.26,NNW,334,6.3,7.8,15,0.00,,---,0.00,VWS V14.01,2013-03-23 22:25:00,
2013-03-23 15:30:00,66.2,17.2,29.26,NE,42,7.4,9.2,15,0.00,,---,0.00,VWS V14.01,2013-03-23 22:30:00,
2013-03-23 15:35:00,66.4,17.4,29.26,NE,34,4.9,7.8,15,0.00,,---,0.00,VWS V14.01,2013-03-23 22:35:00,
2013-03-23 15:40:00,66.9,17.8,29.26,North,8,5.4,6.3,15,0.00,,---,0.00,VWS V14.01,2013-03-23 22:40:00,
2013-03-23 15:45:00,66.7,17.6,29.26,ENE,61,6.9,8.7,15,0.00,,---,0.00,VWS V14.01,2013-03-23 22:45:00,
2013-03-23 15:50:00,67.5,18.2,29.26,NE,47,5.8,7.8,15,0.00,,---,0.00,VWS V14.01,2013-03-23 22:50:00,
2013-03-23 15:55:00,67.3,18.1,29.26,NE,47,7.4,8.3,15,0.00,,---,0.00,VWS V14.01,2013-03-23 22:55:00,
2013-03-23 16:00:00,67.8,18.5,29.26,East,100,5.4,6.3,15,0.00,,---,0.00,VWS V14.01,2013-03-23 23:00:00,
2013-03-23 16:05:00,67.6,18.4,29.26,East,98,4.9,5.4,15,0.00,,---,0.00,VWS V14.01,2013-03-23 23:05:00,
2013-03-23 16:10:00,67.6,18.4,29.26,East,84,5.4,8.3,15,0.00,,---,0.00,VWS V14.01,2013-03-23 23:10:00,
2013-03-23 16:15:00,67.1,17.9,29.26,ENE,70,7.8,8.3,15,0.00,,---,0.00,VWS V14.01,2013-03-23 23:15:00,
2013-03-23 16:20:00,67.3,18.1,29.26,ESE,108,4.0,5.4,15,0.00,,---,0.00,VWS V14.01,2013-03-23 23:20:00,
2013-03-23 16:25:00,67.5,18.2,29.26,North,11,4.0,8.3,15,0.00,,---,0.00,VWS V14.01,2013-03-23 23:25:00,
2013-03-23 16:30:00,67.3,18.1,29.26,NE,39,7.4,8.7,15,0.00,,---,0.00,VWS V14.01,2013-03-23 23:30:00,
2013-03-23 16:35:00,67.8,18.5,29.26,ENE,58,5.4,5.8,15,0.00,,---,0.00,VWS V14.01,2013-03-23 23:35:00,
2013-03-23 16:40:00,67.5,18.2,29.26,East,88,4.5,5.8,15,0.00,,---,0.00,VWS V14.01,2013-03-23 23:40:00,
2013-03-23 16:45:00,67.6,18.4,29.26,NE,51,5.4,7.8,15,0.00,,---,0.00,VWS V14.01,2013-03-23 23:45:00,
2013-03-23 16:50:00,67.8,18.5,29.26,ENE,60,4.9,6.3,15,0.00,,---,0.00,VWS V14.01,2013-03-23 23:50:00,
2013-03-23 16:55:00,67.6,18.4,29.26,East,101,5.4,6.7,15,0.00,,---,0.00,VWS V14.01,2013-03-23 23:55:00,
2013-03-23 17:00:00,68.0,18.7,29.26,ENE,68,0.0,0.0,15,0.00,,---,0.00,VWS V14.01,2013-03-24 00:00:00,
2013-03-23 17:05:00,67.6,18.4,29.26,ENE,66,2.7,4.5,15,0.00,,---,0.00,VWS V14.01,2013-03-24 00:05:00,
2013-03-23 17:10:00,68.0,18.7,29.26,NNW,330,4.0,4.5,15,0.00,,---,0.00,VWS V14.01,2013-03-24 00:10:00,
2013-03-23 17:15:00,67.3,18.1,29.26,North,351,8.7,10.1,15,0.00,,---,0.00,VWS V14.01,2013-03-24 00:15:00,
2013-03-23 17:21:00,67.6,18.4,29.26,NNE,17,5.8,5.8,15,0.00,,---,0.00,VWS V14.01,2013-03-24 00:21:00,
2013-03-23 17:26:00,67.3,18.1,29.26,North,4,2.7,6.3,15,0.00,,---,0.00,VWS V14.01,2013-03-24 00:26:00,
2013-03-23 17:32:00,66.9,17.8,29.26,NE,41,4.5,6.9,15,0.00,,---,0.00,VWS V14.01,2013-03-24 00:32:00,
2013-03-23 17:37:00,66.9,17.8,29.26,NNE,31,4.9,8.3,15,0.00,,---,0.00,VWS V14.01,2013-03-24 00:37:00,
2013-03-23 17:42:00,66.7,17.6,29.26,North,351,4.9,7.8,15,0.00,,---,0.00,VWS V14.01,2013-03-24 00:42:00,
2013-03-23 17:47:00,66.9,17.8,29.26,NNE,16,5.4,6.3,15,0.00,,---,0.00,VWS V14.01,2013-03-24 00:47:00,
2013-03-23 17:52:00,66.6,17.5,29.26,NNE,28,3.6,7.8,15,0.00,,---,0.00,VWS V14.01,2013-03-24 00:52:00,
2013-03-23 17:57:00,66.7,17.6,29.26,NNE,30,6.3,6.3,15,0.00,,---,0.00,VWS V14.01,2013-03-24 00:57:00,
2013-03-23 18:03:00,66.6,17.5,29.26,NNE,12,5.4,6.9,15,0.00,,---,0.00,VWS V14.01,2013-03-24 01:03:00,
2013-03-23 18:08:00,66.4,17.4,29.26,NNE,17,4.5,6.7,15,0.00,,---,0.00,VWS V14.01,2013-03-24 01:08:00,
2013-03-23 18:13:00,66.2,17.2,29.26,NE,51,5.4,5.4,15,0.00,,---,0.00,VWS V14.01,2013-03-24 01:13:00,
2013-03-23 18:18:00,65.8,16.9,29.26,NE,40,6.9,7.4,15,0.00,,---,0.00,VWS V14.01,2013-03-24 01:18:00,
2013-03-23 18:23:00,65.7,16.8,29.26,NE,53,5.8,6.9,15,0.00,,---,0.00,VWS V14.01,2013-03-24 01:23:00,
2013-03-23 18:29:00,65.3,16.5,29.26,NNE,32,5.4,5.4,15,0.00,,---,0.00,VWS V14.01,2013-03-24 01:29:00,
2013-03-23 18:34:00,64.8,16.1,29.26,NE,43,4.5,4.9,15,0.00,,---,0.00,VWS V14.01,2013-03-24 01:34:00,
2013-03-23 18:39:00,64.4,15.8,29.26,NE,36,5.8,5.8,15,0.00,,---,0.00,VWS V14.01,2013-03-24 01:39:00,
2013-03-23 18:44:00,64.0,15.5,29.26,NE,43,4.9,5.8,15,0.00,,---,0.00,VWS V14.01,2013-03-24 01:44:00,
2013-03-23 18:49:00,63.3,16.4,29.26,NE,43,4.9,5.4,16,0.00,,---,0.00,VWS V14.01,2013-03-24 01:49:00,
2013-03-23 18:54:00,62.2,15.5,29.26,ENE,62,4.9,5.4,16,0.00,,---,0.00,VWS V14.01,2013-03-24 01:54:00,
2013-03-23 18:59:00,61.5,14.9,29.26,East,80,4.0,4.5,16,0.00,,---,0.00,VWS V14.01,2013-03-24 01:59:00,
2013-03-23 19:04:00,61.0,14.5,29.26,East,84,3.6,4.0,16,0.00,,---,0.00,VWS V14.01,2013-03-24 02:04:00,
2013-03-23 19:09:00,60.8,14.4,29.26,East,79,3.6,4.5,16,0.00,,---,0.00,VWS V14.01,2013-03-24 02:09:00,
2013-03-23 19:14:00,59.4,14.6,29.26,NNW,333,4.5,4.9,17,0.00,,---,0.00,VWS V14.01,2013-03-24 02:14:00,
2013-03-23 19:19:00,58.6,14.0,29.26,WNW,284,4.9,5.8,17,0.00,,---,0.00,VWS V14.01,2013-03-24 02:19:00,
2013-03-23 19:24:00,58.3,13.7,29.26,North,356,4.9,5.4,17,0.00,,---,0.00,VWS V14.01,2013-03-24 02:24:00,
2013-03-23 19:29:00,56.5,12.2,29.26,North,4,3.6,4.5,17,0.00,,---,0.00,VWS V14.01,2013-03-24 02:29:00,
2013-03-23 19:34:00,55.4,11.3,29.26,North,351,3.6,4.0,17,0.00,,---,0.00,VWS V14.01,2013-03-24 02:34:00,
2013-03-23 19:39:00,54.7,10.7,29.26,NW,320,4.5,4.5,17,0.00,,---,0.00,VWS V14.01,2013-03-24 02:39:00,
2013-03-23 19:44:00,54.7,10.7,29.26,NW,320,4.5,4.5,17,0.00,,---,0.00,VWS V14.01,2013-03-24 02:44:00,
2013-03-23 19:49:00,54.7,10.7,29.26,NW,320,4.5,4.5,17,0.00,,---,0.00,VWS V14.01,2013-03-24 02:49:00,
2013-03-23 19:54:00,54.7,10.7,29.26,NW,315,5.4,5.4,17,0.00,,---,0.00,VWS V14.01,2013-03-24 02:54:00,
2013-03-23 19:59:00,54.9,10.9,29.26,NW,313,3.1,3.1,17,0.00,,---,0.00,VWS V14.01,2013-03-24 02:59:00,
2013-03-23 20:04:00,54.9,10.9,29.29,SW,232,4.0,4.9,17,0.00,,---,0.00,VWS V14.01,2013-03-24 03:04:00,
2013-03-23 20:09:00,54.9,10.9,29.29,SW,231,2.7,3.6,17,0.00,,---,0.00,VWS V14.01,2013-03-24 03:09:00,
2013-03-23 20:14:00,55.6,11.5,29.29,SW,220,0.0,3.6,17,0.00,,---,0.00,VWS V14.01,2013-03-24 03:14:00,
2013-03-23 20:19:00,55.0,11.0,29.29,SW,225,0.0,3.6,17,0.00,,---,0.00,VWS V14.01,2013-03-24 03:19:00,
2013-03-23 20:24:00,54.0,11.4,29.29,SW,225,0.0,0.0,18,0.00,,---,0.00,VWS V14.01,2013-03-24 03:24:00,
2013-03-23 20:29:00,53.8,11.3,29.29,SW,225,0.0,0.0,18,0.00,,---,0.00,VWS V14.01,2013-03-24 03:29:00,
2013-03-23 20:34:00,54.3,11.7,29.29,South,181,3.6,3.6,18,0.00,,---,0.00,VWS V14.01,2013-03-24 03:34:00,
2013-03-23 20:39:00,54.0,11.4,29.29,SSW,212,4.0,4.0,18,0.00,,---,0.00,VWS V14.01,2013-03-24 03:39:00,
2013-03-23 20:44:00,53.4,11.0,29.29,SW,220,0.0,0.0,18,0.00,,---,0.00,VWS V14.01,2013-03-24 03:44:00,
2013-03-23 20:49:00,52.5,10.2,29.29,South,174,0.0,0.0,18,0.00,,---,0.00,VWS V14.01,2013-03-24 03:49:00,
2013-03-23 20:54:00,52.3,10.1,29.29,SE,128,0.0,0.0,18,0.00,,---,0.00,VWS V14.01,2013-03-24 03:54:00,
2013-03-23 20:59:00,52.3,10.1,29.29,SE,128,0.0,0.0,18,0.00,,---,0.00,VWS V14.01,2013-03-24 03:59:00,
2013-03-23 21:00:00,52.3,10.1,29.29,SE,128,0.0,0.0,18,0.00,,---,0.00,VWS V14.01,2013-03-24 04:00:00,
2013-03-23 21:01:00,52.5,10.2,29.29,SE,128,0.0,0.0,18,0.00,,---,0.00,VWS V14.01,2013-03-24 04:01:00,
2013-03-23 21:02:00,52.2,10.0,29.29,SE,127,3.6,4.0,18,0.00,,---,0.00,VWS V14.01,2013-03-24 04:02:00,
2013-03-23 21:03:00,51.8,9.7,29.29,SE,127,3.6,4.0,18,0.00,,---,0.00,VWS V14.01,2013-03-24 04:03:00,
2013-03-23 21:08:00,51.1,9.1,29.29,ESE,121,3.6,4.5,18,0.00,,---,0.00,VWS V14.01,2013-03-24 04:08:00,
2013-03-23 21:13:00,50.5,9.8,29.29,East,99,3.6,3.6,19,0.00,,---,0.00,VWS V14.01,2013-03-24 04:13:00,
2013-03-23 21:18:00,50.4,9.7,29.32,ESE,107,3.1,4.0,19,0.00,,---,0.00,VWS V14.01,2013-03-24 04:18:00,
2013-03-23 21:23:00,50.4,9.7,29.32,ESE,114,2.7,3.1,19,0.00,,---,0.00,VWS V14.01,2013-03-24 04:23:00,
2013-03-23 21:28:00,50.4,9.7,29.32,East,99,4.0,4.5,19,0.00,,---,0.00,VWS V14.01,2013-03-24 04:28:00,
2013-03-23 21:33:00,50.7,10.0,29.32,East,101,4.0,4.5,19,0.00,,---,0.00,VWS V14.01,2013-03-24 04:33:00,
2013-03-23 21:39:00,50.2,9.5,29.32,ESE,112,3.6,4.0,19,0.00,,---,0.00,VWS V14.01,2013-03-24 04:39:00,
2013-03-23 21:44:00,50.0,9.4,29.32,ESE,121,4.5,4.9,19,0.00,,---,0.00,VWS V14.01,2013-03-24 04:44:00,
2013-03-23 21:49:00,49.6,9.1,29.32,East,97,4.0,4.9,19,0.00,,---,0.00,VWS V14.01,2013-03-24 04:49:00,
2013-03-23 21:54:00,49.1,8.6,29.32,ESE,116,4.5,4.9,19,0.00,,---,0.00,VWS V14.01,2013-03-24 04:54:00,
2013-03-23 21:59:00,49.1,8.6,29.32,East,100,4.9,4.9,19,0.00,,---,0.00,VWS V14.01,2013-03-24 04:59:00,
2013-03-23 22:04:00,49.6,9.1,29.32,SE,131,5.4,5.4,19,0.00,,---,0.00,VWS V14.01,2013-03-24 05:04:00,
2013-03-23 22:09:00,50.4,9.7,29.32,SE,129,2.7,3.1,19,0.00,,---,0.00,VWS V14.01,2013-03-24 05:09:00,
2013-03-23 22:14:00,49.3,8.8,29.32,NNE,17,0.0,3.6,19,0.00,,---,0.00,VWS V14.01,2013-03-24 05:14:00,
2013-03-23 22:19:00,47.5,7.3,29.32,NNE,17,3.1,3.1,19,0.00,,---,0.00,VWS V14.01,2013-03-24 05:19:00,
2013-03-23 22:24:00,45.9,5.9,29.32,NNW,338,4.0,4.9,19,0.00,,---,0.00,VWS V14.01,2013-03-24 05:24:00,
2013-03-23 22:29:00,44.1,10.5,29.32,NNW,337,4.0,4.5,25,0.00,,---,0.00,VWS V14.01,2013-03-24 05:29:00,
2013-03-23 22:34:00,42.8,12.8,29.32,NNW,337,0.0,0.0,29,0.00,,---,0.00,VWS V14.01,2013-03-24 05:34:00,
2013-03-23 22:39:00,42.6,16.2,29.32,NNW,337,0.0,0.0,34,0.00,,---,0.00,VWS V14.01,2013-03-24 05:39:00,
2013-03-23 22:44:00,43.3,17.5,29.32,NNW,337,0.0,0.0,35,0.00,,---,0.00,VWS V14.01,2013-03-24 05:44:00,
2013-03-23 22:49:00,43.7,17.2,29.32,NNW,337,0.0,0.0,34,0.00,,---,0.00,VWS V14.01,2013-03-24 05:49:00,
2013-03-23 22:54:00,43.7,16.5,29.32,NNW,337,0.0,0.0,33,0.00,,---,0.00,VWS V14.01,2013-03-24 05:54:00,
2013-03-23 22:59:00,44.4,17.1,29.32,NNW,337,0.0,0.0,33,0.00,,---,0.00,VWS V14.01,2013-03-24 05:59:00,
2013-03-23 23:04:00,45.3,17.2,29.32,NNW,337,0.0,0.0,32,0.00,,---,0.00,VWS V14.01,2013-03-24 06:04:00,
2013-03-23 23:09:00,45.7,16.0,29.32,East,88,2.7,2.7,30,0.00,,---,0.00,VWS V14.01,2013-03-24 06:09:00,
2013-03-23 23:14:00,45.9,16.2,29.32,ESE,108,3.6,4.0,30,0.00,,---,0.00,VWS V14.01,2013-03-24 06:14:00,
2013-03-23 23:20:00,46.2,16.5,29.32,ESE,109,3.6,4.0,30,0.00,,---,0.00,VWS V14.01,2013-03-24 06:20:00,
2013-03-23 23:25:00,46.2,15.7,29.32,ESE,109,2.7,2.7,29,0.00,,---,0.00,VWS V14.01,2013-03-24 06:25:00,
2013-03-23 23:30:00,46.0,15.6,29.32,ESE,109,0.0,2.7,29,0.00,,---,0.00,VWS V14.01,2013-03-24 06:30:00,
2013-03-23 23:35:00,45.3,15.7,29.32,ESE,109,0.0,0.0,30,0.00,,---,0.00,VWS V14.01,2013-03-24 06:35:00,
2013-03-23 23:40:00,44.2,14.8,29.32,ESE,109,0.0,0.0,30,0.00,,---,0.00,VWS V14.01,2013-03-24 06:40:00,
2013-03-23 23:45:00,43.7,14.3,29.32,ESE,109,0.0,0.0,30,0.00,,---,0.00,VWS V14.01,2013-03-24 06:45:00,
2013-03-23 23:50:00,43.5,14.9,29.32,ESE,109,0.0,0.0,31,0.00,,---,0.00,VWS V14.01,2013-03-24 06:50:00,
2013-03-23 23:55:00,43.9,15.2,29.32,ESE,109,0.0,0.0,31,0.00,,---,0.00,VWS V14.01,2013-03-24 06:55:00,